Terminal Aerodrome Forecast
Issued by NWS

Home | Current Version | Previous Version | Text Only | Print | Product List | Glossary On
Versions: 1 2 3 4 5 6 7 8 9 10 11 12 13 14 15 16 17 18 19 20 21
000
FTUS43 KGRR 191100
TAFMKG
TAF
KMKG 191138Z 1912/2012 10017G25KT P6SM SCT080 BKN200
     FM192200 10012G21KT P6SM -RA OVC035
     FM200100 09013G21KT 5SM -RA BR OVC015
     FM200400 06010G18KT 2SM RA BR OVC005=

USA.gov is the U.S. government's official web portal to all federal, state and local government web resources and services.